This is the latest recevied weather packets stored in our database for station/object W4OCD. If no packets are shown the sender has not sent any weather packets the latest 10 day(s).
| Time | Temp. | Humidity | Pressure | Rain* | Wind** | Luminosity | Snow |
|---|---|---|---|---|---|---|---|
| 1778103258 | 22.22° C | 97% | 1012.4 hPa | 3.05 mm | - | 35 W/m² | - |
| 1778102956 | 22.78° C | 97% | 1012.5 hPa | 1.27 mm | - | 39 W/m² | - |
| 1778102651 | 22.78° C | 96% | 1012.4 hPa | 0 mm | - | 52 W/m² | - |
| 1778102043 | 22.78° C | 96% | 1012.1 hPa | 0 mm | - | 132 W/m² | - |
| 1778101740 | 22.22° C | 96% | 1012.3 hPa | 0 mm | - | 108 W/m² | - |
| 1778099921 | 22.78° C | 95% | 1012 hPa | 0 mm | - | 33 W/m² | - |
| 1778099618 | 22.22° C | 95% | 1012.4 hPa | 0 mm | - | 25 W/m² | - |
| 1778099315 | 22.22° C | 95% | 1012.9 hPa | 0 mm | - | 7 W/m² | - |
| 1778099012 | 22.78° C | 95% | 1013 hPa | 0 mm | - | 19 W/m² | - |
| 1778098709 | 22.78° C | 95% | 1012.9 hPa | 0 mm | - | 17 W/m² | - |
| 1778098103 | 22.78° C | 96% | 1013.1 hPa | 0 mm | - | 20 W/m² | - |
| 1778097799 | 22.78° C | 95% | 1013.4 hPa | 0 mm | - | 18 W/m² | - |
| 1778094464 | 23.89° C | 86% | 1013.7 hPa | 0 mm | - | 55 W/m² | - |
| 1778092038 | 25.56° C | 83% | 1014.4 hPa | 0 mm | - | 353 W/m² | - |
| 1778088706 | 24.44° C | 84% | 1014.3 hPa | 0 mm | - | 262 W/m² | - |
| 1778088403 | 23.89° C | 86% | 1014.4 hPa | 0 mm | - | 285 W/m² | - |
| 1778087797 | 23.89° C | 86% | 1014.9 hPa | 0 mm | - | 272 W/m² | - |
| 1778085063 | 23.89° C | 87% | 1014.6 hPa | 0 mm | - | 179 W/m² | - |
| 1778084149 | 23.33° C | 87% | 1014.7 hPa | 0 mm | - | 175 W/m² | - |
| 1778083544 | 23.33° C | 87% | 1014.8 hPa | 0 mm | - | 208 W/m² | - |
| 1778079716 | 22.78° C | 89% | 1015 hPa | 0 mm | - | 194 W/m² | - |
| 1778074568 | 20.56° C | 93% | 1015.3 hPa | 0 mm | - | 111 W/m² | - |
| 1778074265 | 20.56° C | 93% | 1015.3 hPa | 0 mm | - | 121 W/m² | - |
| 1778073962 | 20.56° C | 93% | 1015.3 hPa | 0 mm | - | 85 W/m² | - |
| 1778073659 | 20° C | 93% | 1015.5 hPa | 0 mm | - | 103 W/m² | - |
* Rain latest hour (hover to see other rain measurements)
** Current wind speed in m/s (hover to see current wind gust speed)